Terminal Aerodrome Forecast
Issued by NWS

Home | Current Version | Previous Version | Text Only | Print | Product List | Glossary On
Versions: 1 2 3 4 5 6 7 8 9 10 11 12 13 14 15 16 17
000
FTUS46 KSTO 230000 AAA
TAFMHR
TAF AMD
KMHR 230001Z 2300/2324 30004KT P6SM SCT012
     FM230600 30003KT 6SM BR SCT250
     FM230800 28004KT 3SM BR SCT015
     FM231000 VRB04KT 1SM BR BKN007
      TEMPO 2312/2316 1/2SM FG BKN002
     FM232000 35005KT 4SM HZ BKN015=

USA.gov is the U.S. government's official web portal to all federal, state and local government web resources and services.